createdAt,value
2024-01-31T00:01:19.869Z,10.27
2024-01-31T00:03:31.034Z,10.40
2024-01-31T00:05:39.267Z,10.77
2024-01-31T00:07:47.630Z,9.70
2024-01-31T00:09:56.019Z,10.05
2024-01-31T00:12:04.197Z,10.65
2024-01-31T00:14:14.760Z,9.70
2024-01-31T00:16:22.986Z,10.60
2024-01-31T00:18:34.245Z,9.95
2024-01-31T00:20:42.566Z,10.85
2024-01-31T00:22:50.912Z,10.27
2024-01-31T00:24:59.288Z,11.63
2024-01-31T00:27:08.256Z,12.43
2024-01-31T00:29:16.169Z,12.98
2024-01-31T00:31:24.654Z,11.73
2024-01-31T00:33:35.758Z,13.20
2024-01-31T00:35:49.306Z,12.73
2024-01-31T00:37:57.873Z,11.73
2024-01-31T00:40:07.262Z,11.18
2024-01-31T00:42:15.929Z,11.77
2024-01-31T00:44:24.091Z,12.68
2024-01-31T00:46:32.601Z,9.57
2024-01-31T00:48:44.543Z,11.85
2024-01-31T00:50:52.823Z,11.10
2024-01-31T00:53:00.911Z,10.75
2024-01-31T00:55:09.650Z,12.05
2024-01-31T00:57:17.912Z,10.45
2024-01-31T00:59:26.388Z,9.38
2024-01-31T01:01:35.061Z,11.07
2024-01-31T01:03:45.845Z,11.75
2024-01-31T01:05:54.226Z,11.90
2024-01-31T01:08:04.195Z,13.88
2024-01-31T01:10:13.282Z,13.95
2024-01-31T01:12:21.348Z,16.80
2024-01-31T01:14:29.465Z,14.23
2024-01-31T01:16:37.904Z,15.27
2024-01-31T01:18:48.927Z,14.90
2024-01-31T01:20:57.249Z,13.63
2024-01-31T01:23:05.571Z,14.00
2024-01-31T01:25:11.176Z,12.65
2024-01-31T01:27:19.491Z,14.68
2024-01-31T01:29:27.873Z,13.55
2024-01-31T01:31:36.175Z,16.05
2024-01-31T01:33:44.790Z,14.63
2024-01-31T01:35:55.625Z,14.32
2024-01-31T01:38:03.727Z,13.52
2024-01-31T01:40:13.286Z,14.65
2024-01-31T01:42:22.094Z,14.25
2024-01-31T01:44:32.642Z,14.10
2024-01-31T01:46:41.067Z,14.48
2024-01-31T01:48:50.377Z,14.75
2024-01-31T01:51:01.192Z,14.35
2024-01-31T01:53:09.836Z,13.38
2024-01-31T01:55:18.273Z,13.10
2024-01-31T01:57:26.944Z,13.27
2024-01-31T01:59:35.183Z,12.05
2024-01-31T02:01:45.592Z,12.68
2024-01-31T02:04:01.465Z,12.48
2024-01-31T02:06:12.819Z,11.57
2024-01-31T02:08:21.304Z,13.75
2024-01-31T02:10:29.512Z,12.07
2024-01-31T02:12:38.089Z,12.43
2024-01-31T02:14:44.090Z,13.50
2024-01-31T02:16:52.751Z,13.18
2024-01-31T02:19:01.222Z,13.50
2024-01-31T02:21:12.568Z,15.05
2024-01-31T02:23:24.486Z,14.50
2024-01-31T02:25:33.154Z,14.88
2024-01-31T02:27:42.661Z,15.18
2024-01-31T02:29:50.876Z,13.35
2024-01-31T02:31:56.247Z,13.95
2024-01-31T02:34:04.465Z,13.95
2024-01-31T02:36:10.132Z,15.02
2024-01-31T02:38:18.314Z,12.98
2024-01-31T02:40:30.192Z,13.35
2024-01-31T02:42:38.172Z,12.80
2024-01-31T02:44:47.123Z,13.05
2024-01-31T02:46:55.164Z,13.70
2024-01-31T02:49:04.163Z,12.73
2024-01-31T02:51:12.903Z,13.32
2024-01-31T02:53:21.073Z,13.90
2024-01-31T02:55:32.216Z,12.98
2024-01-31T02:57:41.228Z,12.98
2024-01-31T02:59:50.058Z,12.98
2024-01-31T03:01:58.761Z,14.68
2024-01-31T03:04:07.193Z,11.98
2024-01-31T03:06:15.976Z,13.23
2024-01-31T03:08:24.123Z,14.73
2024-01-31T03:10:34.850Z,13.48
2024-01-31T03:12:40.688Z,12.30
2024-01-31T03:14:49.043Z,13.27
2024-01-31T03:16:57.713Z,14.40
2024-01-31T03:19:05.967Z,16.63
2024-01-31T03:21:11.487Z,14.20
2024-01-31T03:23:20.105Z,12.40
2024-01-31T03:25:25.816Z,12.23
2024-01-31T03:27:36.796Z,13.90
2024-01-31T03:29:42.567Z,11.88
2024-01-31T03:31:51.045Z,12.30
2024-01-31T03:34:00.183Z,12.68
2024-01-31T03:36:13.321Z,13.93
2024-01-31T03:38:21.627Z,12.90
2024-01-31T03:40:30.161Z,12.45
2024-01-31T03:42:41.560Z,11.95
2024-01-31T03:44:49.786Z,13.43
2024-01-31T03:46:58.256Z,11.57
2024-01-31T03:49:06.829Z,12.75
2024-01-31T03:51:22.783Z,13.13
2024-01-31T03:53:31.557Z,12.30
2024-01-31T03:55:40.616Z,12.70
2024-01-31T03:57:51.727Z,11.25
2024-01-31T03:59:57.308Z,12.82
2024-01-31T04:02:05.540Z,13.98
2024-01-31T04:04:13.970Z,12.00
2024-01-31T04:06:22.634Z,12.20
2024-01-31T04:08:31.050Z,12.43
2024-01-31T04:10:39.549Z,10.88
2024-01-31T04:12:49.325Z,11.60
2024-01-31T04:15:00.353Z,11.25
2024-01-31T04:17:08.769Z,13.32
2024-01-31T04:19:17.305Z,11.80
2024-01-31T04:21:26.401Z,11.93
2024-01-31T04:23:34.579Z,10.38
2024-01-31T04:25:43.180Z,11.30
2024-01-31T04:27:52.255Z,11.10
2024-01-31T04:30:03.357Z,11.05
2024-01-31T04:32:12.106Z,10.35
2024-01-31T04:34:20.496Z,10.55
2024-01-31T04:36:28.840Z,10.32
2024-01-31T04:38:37.502Z,9.85
2024-01-31T04:40:46.082Z,11.10
2024-01-31T04:42:54.863Z,10.57
2024-01-31T04:45:06.717Z,11.25
2024-01-31T04:47:15.155Z,11.38
2024-01-31T04:49:20.758Z,10.73
2024-01-31T04:51:29.553Z,10.73
2024-01-31T04:53:38.247Z,10.60
2024-01-31T04:55:49.803Z,12.85
2024-01-31T04:57:58.170Z,10.57
2024-01-31T05:00:11.478Z,13.40
2024-01-31T05:02:17.285Z,11.80
2024-01-31T05:04:27.153Z,10.60
2024-01-31T05:06:35.727Z,8.98
2024-01-31T05:08:44.238Z,10.45
2024-01-31T05:10:52.819Z,10.30
2024-01-31T05:13:01.390Z,9.38
2024-01-31T05:15:13.726Z,9.52
2024-01-31T05:17:21.883Z,9.98
2024-01-31T05:19:32.621Z,10.13
2024-01-31T05:21:40.851Z,9.27
2024-01-31T05:23:49.256Z,8.93
2024-01-31T05:25:57.627Z,10.50
2024-01-31T05:28:06.177Z,10.10
2024-01-31T05:30:18.296Z,9.23
2024-01-31T05:32:26.490Z,9.80
2024-01-31T05:34:35.051Z,9.27
2024-01-31T05:36:40.964Z,9.23
2024-01-31T05:38:49.306Z,10.50
2024-01-31T05:40:57.816Z,8.68
2024-01-31T05:43:06.620Z,10.18
2024-01-31T05:45:15.131Z,10.40
2024-01-31T05:47:23.501Z,10.65
2024-01-31T05:49:29.195Z,12.88
2024-01-31T05:51:37.668Z,10.18
2024-01-31T05:53:45.984Z,10.73
2024-01-31T05:55:54.486Z,10.90
2024-01-31T05:58:04.507Z,8.65
2024-01-31T06:00:18.511Z,10.43
2024-01-31T06:02:26.814Z,9.05
2024-01-31T06:04:35.292Z,10.15
2024-01-31T06:06:44.222Z,10.23
2024-01-31T06:08:49.917Z,10.18
2024-01-31T06:11:04.635Z,10.13
2024-01-31T06:13:13.574Z,9.00
2024-01-31T06:15:25.765Z,9.82
2024-01-31T06:17:34.074Z,10.75
2024-01-31T06:19:44.064Z,9.25
2024-01-31T06:21:52.389Z,9.65
2024-01-31T06:24:00.844Z,10.73
2024-01-31T06:28:40.193Z,12.20
2024-01-31T06:31:00.752Z,11.40
2024-01-31T06:33:09.953Z,12.05
2024-01-31T06:35:18.824Z,11.60
2024-01-31T06:37:27.200Z,10.55
2024-01-31T06:39:37.905Z,11.70
2024-01-31T06:41:47.103Z,10.75
2024-01-31T06:43:55.673Z,10.18
2024-01-31T06:46:06.855Z,12.40
2024-01-31T06:48:15.552Z,11.30
2024-01-31T06:50:25.092Z,11.10
2024-01-31T06:52:33.542Z,10.43
2024-01-31T06:54:41.977Z,11.52
2024-01-31T06:56:50.512Z,10.35
2024-01-31T06:58:59.782Z,11.48
2024-01-31T07:01:11.255Z,11.32
2024-01-31T07:03:19.660Z,10.45
2024-01-31T07:05:25.627Z,11.00
2024-01-31T07:07:34.129Z,9.63
2024-01-31T07:09:45.161Z,10.40
2024-01-31T07:11:53.573Z,9.35
2024-01-31T07:14:01.901Z,10.90
2024-01-31T07:16:14.338Z,11.60
2024-01-31T07:18:22.990Z,10.95
2024-01-31T07:20:31.823Z,10.70
2024-01-31T07:22:40.393Z,9.90
2024-01-31T07:24:48.988Z,11.75
2024-01-31T07:26:57.372Z,11.93
2024-01-31T07:29:09.635Z,9.70
2024-01-31T07:31:20.813Z,10.65
2024-01-31T07:33:29.345Z,9.35
2024-01-31T07:35:37.782Z,11.10
2024-01-31T07:37:43.424Z,10.10
2024-01-31T07:39:51.817Z,11.02
2024-01-31T07:42:01.403Z,10.90
2024-01-31T07:44:09.543Z,10.70
2024-01-31T07:46:22.946Z,9.77
2024-01-31T07:48:31.370Z,9.98
2024-01-31T07:50:39.990Z,10.82
2024-01-31T07:52:48.296Z,9.70
2024-01-31T07:54:56.744Z,11.50
2024-01-31T07:57:05.398Z,13.23
2024-01-31T07:59:13.898Z,13.32
2024-01-31T08:01:25.242Z,12.93
2024-01-31T08:03:36.532Z,13.93
2024-01-31T08:05:45.085Z,14.23
2024-01-31T08:07:53.384Z,14.75
2024-01-31T08:09:59.175Z,15.10
2024-01-31T08:12:08.272Z,12.90
2024-01-31T08:14:16.844Z,11.90
2024-01-31T08:16:28.087Z,11.80
2024-01-31T08:18:36.508Z,12.05
2024-01-31T08:20:44.979Z,12.43
2024-01-31T08:22:53.306Z,10.57
2024-01-31T08:25:01.896Z,10.85
2024-01-31T08:27:07.641Z,11.75
2024-01-31T08:29:23.204Z,11.43
2024-01-31T08:31:38.448Z,11.13
2024-01-31T08:33:48.958Z,11.93
2024-01-31T08:35:54.763Z,13.10
2024-01-31T08:38:04.199Z,12.05
2024-01-31T08:40:15.468Z,12.80
2024-01-31T08:42:30.325Z,12.25
2024-01-31T08:44:38.986Z,12.70
2024-01-31T08:47:03.276Z,11.00
2024-01-31T08:49:19.112Z,10.98
2024-01-31T08:51:24.869Z,10.93
2024-01-31T08:53:33.600Z,10.57
2024-01-31T08:55:39.402Z,10.60
2024-01-31T08:57:47.929Z,10.65
2024-01-31T08:59:56.921Z,11.45
2024-01-31T09:02:09.359Z,10.90
2024-01-31T09:04:15.213Z,11.75
2024-01-31T09:06:23.638Z,11.70
2024-01-31T09:08:30.052Z,12.10
2024-01-31T09:10:59.666Z,11.27
2024-01-31T09:13:08.376Z,12.43
2024-01-31T09:15:18.673Z,10.60
2024-01-31T09:17:29.808Z,11.43
2024-01-31T09:19:38.121Z,10.68
2024-01-31T09:21:46.198Z,11.52
2024-01-31T09:23:55.137Z,11.15
2024-01-31T09:26:04.567Z,12.73
2024-01-31T09:28:12.732Z,10.70
2024-01-31T09:30:20.952Z,10.95
2024-01-31T09:32:31.902Z,11.80
2024-01-31T09:34:40.458Z,12.38
2024-01-31T09:36:49.738Z,10.73
2024-01-31T09:38:59.139Z,12.05
2024-01-31T09:41:07.869Z,10.70
2024-01-31T09:43:19.669Z,10.20
2024-01-31T09:45:30.856Z,9.27
2024-01-31T09:47:43.805Z,11.02
2024-01-31T09:49:54.173Z,10.40
2024-01-31T09:52:03.643Z,10.95
2024-01-31T09:54:13.288Z,10.63
2024-01-31T09:56:22.136Z,10.40
2024-01-31T09:58:30.284Z,11.85
2024-01-31T10:00:38.819Z,13.30
2024-01-31T10:02:52.287Z,12.50
2024-01-31T10:05:03.351Z,13.73
2024-01-31T10:07:11.608Z,11.82
2024-01-31T10:09:19.835Z,10.80
2024-01-31T10:11:30.395Z,11.25
2024-01-31T10:13:40.743Z,10.95
2024-01-31T10:15:48.997Z,10.43
2024-01-31T10:18:01.150Z,11.80
2024-01-31T10:20:13.130Z,12.52
2024-01-31T10:22:22.081Z,13.50
2024-01-31T10:24:30.639Z,14.20
2024-01-31T10:26:39.685Z,12.35
2024-01-31T10:28:51.188Z,14.30
2024-01-31T10:31:02.314Z,11.80
2024-01-31T10:33:17.308Z,13.20
2024-01-31T10:35:44.552Z,10.85
2024-01-31T10:37:58.035Z,11.35
2024-01-31T10:40:11.392Z,14.07
2024-01-31T10:42:23.146Z,12.15
2024-01-31T10:44:31.962Z,12.05
2024-01-31T10:46:49.363Z,11.65
2024-01-31T10:49:00.544Z,12.35
2024-01-31T10:51:13.881Z,12.52
2024-01-31T10:53:26.859Z,11.50
2024-01-31T10:55:37.132Z,11.55
2024-01-31T10:57:46.108Z,11.50
2024-01-31T10:59:54.556Z,12.20
2024-01-31T11:02:03.113Z,11.70
2024-01-31T11:04:17.804Z,13.70
2024-01-31T11:06:28.088Z,12.80
2024-01-31T11:08:39.422Z,13.07
2024-01-31T11:10:47.708Z,13.10
2024-01-31T11:13:04.232Z,13.43
2024-01-31T11:15:13.638Z,12.90
2024-01-31T11:17:28.548Z,13.10
2024-01-31T11:19:41.448Z,11.52
2024-01-31T11:21:49.636Z,12.10
2024-01-31T11:23:55.326Z,12.57
2024-01-31T11:26:05.466Z,11.43
2024-01-31T11:28:15.270Z,11.32
2024-01-31T11:30:24.429Z,12.52
2024-01-31T11:32:34.486Z,12.15
2024-01-31T11:34:46.546Z,13.00
2024-01-31T11:36:54.752Z,13.30
2024-01-31T11:39:03.039Z,12.93
2024-01-31T11:41:11.348Z,13.50
2024-01-31T11:43:20.230Z,13.52
2024-01-31T11:45:29.251Z,11.13
2024-01-31T11:47:38.425Z,12.32
2024-01-31T11:49:49.585Z,11.63
2024-01-31T11:51:57.637Z,10.38
2024-01-31T11:54:07.054Z,11.48
2024-01-31T11:56:17.769Z,11.73
2024-01-31T11:58:27.287Z,12.68
2024-01-31T12:00:36.241Z,12.05
2024-01-31T12:02:45.429Z,12.55
2024-01-31T12:05:01.858Z,11.45
2024-01-31T12:07:11.106Z,12.13
2024-01-31T12:09:20.368Z,11.68
2024-01-31T12:11:30.086Z,10.38
2024-01-31T12:13:38.317Z,11.05
2024-01-31T12:15:47.921Z,10.07
2024-01-31T12:17:56.888Z,11.15
2024-01-31T12:20:13.727Z,9.65
2024-01-31T12:22:22.411Z,10.20
2024-01-31T12:24:32.288Z,9.80
2024-01-31T12:26:41.517Z,9.18
2024-01-31T12:28:55.287Z,9.07
2024-01-31T12:31:03.465Z,9.77
2024-01-31T12:33:11.783Z,9.93
2024-01-31T12:35:24.305Z,10.30
2024-01-31T12:37:33.406Z,10.52
2024-01-31T12:39:41.710Z,10.68
2024-01-31T12:41:51.492Z,10.00
2024-01-31T12:44:00.088Z,9.73
2024-01-31T12:46:08.777Z,10.55
2024-01-31T12:48:17.525Z,9.25
2024-01-31T12:50:28.347Z,9.80
2024-01-31T12:52:38.359Z,10.32
2024-01-31T12:54:46.417Z,11.02
2024-01-31T12:56:54.534Z,10.80
2024-01-31T12:59:02.738Z,10.98
2024-01-31T13:01:11.195Z,11.80
2024-01-31T13:03:16.806Z,12.23
2024-01-31T13:05:29.680Z,11.05
2024-01-31T13:07:38.511Z,12.85
2024-01-31T13:09:46.737Z,12.35
2024-01-31T13:11:54.837Z,10.90
2024-01-31T13:14:00.520Z,11.57
2024-01-31T13:16:09.664Z,12.25
2024-01-31T13:18:18.094Z,11.65
2024-01-31T13:20:28.983Z,11.60
2024-01-31T13:22:38.066Z,11.82
2024-01-31T13:24:48.443Z,12.00
2024-01-31T13:26:57.465Z,11.52
2024-01-31T13:29:05.611Z,12.27
2024-01-31T13:31:14.822Z,11.07
2024-01-31T13:33:23.029Z,12.68
2024-01-31T13:35:33.714Z,11.13
2024-01-31T13:37:42.177Z,12.30
2024-01-31T13:39:52.139Z,12.80
2024-01-31T13:42:03.677Z,11.00
2024-01-31T13:44:12.115Z,13.30
2024-01-31T13:46:21.484Z,11.27
2024-01-31T13:48:32.677Z,11.73
2024-01-31T13:50:47.150Z,10.52
2024-01-31T13:52:59.399Z,12.80
2024-01-31T13:55:16.499Z,12.18
2024-01-31T13:57:29.904Z,10.13
2024-01-31T13:59:40.752Z,10.65
2024-01-31T14:01:50.469Z,11.27
2024-01-31T14:03:59.262Z,11.27
2024-01-31T14:06:12.240Z,10.75
2024-01-31T14:08:20.370Z,11.60
2024-01-31T14:10:28.539Z,11.68
2024-01-31T14:12:38.126Z,12.15
2024-01-31T14:14:46.418Z,13.13
2024-01-31T14:16:57.551Z,11.00
2024-01-31T14:19:07.306Z,11.25
2024-01-31T14:21:20.619Z,12.07
2024-01-31T14:25:40.288Z,11.80
2024-01-31T14:27:54.028Z,12.70
2024-01-31T14:30:05.022Z,11.13
2024-01-31T14:32:14.246Z,11.63
2024-01-31T14:34:25.070Z,12.27
2024-01-31T14:36:35.712Z,12.05
2024-01-31T14:38:43.981Z,11.27
2024-01-31T14:40:49.502Z,12.02
2024-01-31T14:42:57.909Z,11.57
2024-01-31T14:45:06.016Z,11.77
2024-01-31T14:47:16.778Z,12.70
2024-01-31T14:49:28.137Z,11.35
2024-01-31T14:51:38.844Z,12.18
2024-01-31T14:53:48.125Z,13.13
2024-01-31T14:56:00.933Z,12.00
2024-01-31T14:58:09.065Z,11.50
2024-01-31T15:00:20.036Z,11.68
2024-01-31T15:02:28.480Z,11.60
2024-01-31T15:04:38.736Z,11.95
2024-01-31T15:06:52.523Z,11.85
2024-01-31T15:09:01.246Z,10.65
2024-01-31T15:11:15.634Z,11.55
2024-01-31T15:13:24.352Z,11.90
2024-01-31T15:15:32.736Z,11.70
2024-01-31T15:17:41.370Z,11.63
2024-01-31T15:19:51.793Z,12.30
2024-01-31T15:22:02.693Z,14.25
2024-01-31T15:24:13.402Z,15.52
2024-01-31T15:26:21.649Z,14.20
2024-01-31T15:28:29.794Z,12.32
2024-01-31T15:30:38.320Z,13.68
2024-01-31T15:32:47.161Z,12.85
2024-01-31T15:34:57.295Z,11.40
2024-01-31T15:37:08.121Z,12.02
2024-01-31T15:39:16.466Z,12.07
2024-01-31T15:41:25.109Z,11.70
2024-01-31T15:43:30.690Z,11.80
2024-01-31T15:45:38.978Z,12.88
2024-01-31T15:47:47.664Z,11.65
2024-01-31T15:49:56.257Z,12.52
2024-01-31T15:52:04.629Z,11.05
2024-01-31T15:54:17.061Z,12.25
2024-01-31T15:56:25.771Z,12.48
2024-01-31T15:58:36.152Z,12.90
2024-01-31T16:00:44.470Z,12.82
2024-01-31T16:02:53.297Z,14.32
2024-01-31T16:05:01.692Z,13.20
2024-01-31T16:07:10.284Z,13.80
2024-01-31T16:09:21.702Z,15.15
2024-01-31T16:11:30.203Z,13.68
2024-01-31T16:13:38.996Z,13.55
2024-01-31T16:15:50.797Z,14.85
2024-01-31T16:17:59.378Z,13.85
2024-01-31T16:20:10.904Z,12.80
2024-01-31T16:22:20.564Z,12.63
2024-01-31T16:24:31.704Z,14.10
2024-01-31T16:26:42.818Z,12.43
2024-01-31T16:28:51.294Z,13.40
2024-01-31T16:30:58.386Z,14.32
2024-01-31T16:33:07.046Z,14.43
2024-01-31T16:35:15.951Z,13.90
2024-01-31T16:37:24.306Z,14.10
2024-01-31T16:39:35.377Z,13.57
2024-01-31T16:41:41.444Z,14.05
2024-01-31T16:43:49.948Z,16.27
2024-01-31T16:45:58.233Z,12.85
2024-01-31T16:48:09.476Z,16.15
2024-01-31T16:50:18.192Z,15.90
2024-01-31T16:52:26.562Z,15.05
2024-01-31T16:54:37.642Z,13.73
2024-01-31T16:56:46.102Z,15.05
2024-01-31T16:58:54.669Z,14.80
2024-01-31T17:01:04.870Z,14.10
2024-01-31T17:03:13.270Z,16.70
2024-01-31T17:05:21.741Z,14.38
2024-01-31T17:07:31.302Z,14.98
2024-01-31T17:09:42.357Z,13.50
2024-01-31T17:11:50.701Z,13.70
2024-01-31T17:13:59.144Z,13.82
2024-01-31T17:16:08.397Z,16.75
2024-01-31T17:18:21.364Z,15.18
2024-01-31T17:20:30.715Z,15.70
2024-01-31T17:22:39.311Z,14.95
2024-01-31T17:24:50.900Z,17.15
2024-01-31T17:26:59.592Z,16.02
2024-01-31T17:29:08.031Z,15.95
2024-01-31T17:31:16.383Z,15.80
2024-01-31T17:33:24.601Z,14.63
2024-01-31T17:35:33.147Z,15.45
2024-01-31T17:37:42.341Z,24.45
2024-01-31T17:39:53.825Z,18.77
2024-01-31T17:42:02.455Z,19.50
2024-01-31T17:44:10.632Z,20.55
2024-01-31T17:46:28.004Z,17.35
2024-01-31T17:48:36.544Z,17.88
2024-01-31T17:50:46.184Z,17.77
2024-01-31T17:52:55.158Z,17.52
2024-01-31T17:55:06.640Z,17.20
2024-01-31T17:57:15.769Z,18.65
2024-01-31T17:59:25.342Z,17.75
2024-01-31T18:01:31.015Z,18.83
2024-01-31T18:03:40.116Z,16.33
2024-01-31T18:05:53.414Z,17.70
2024-01-31T18:08:02.109Z,16.20
2024-01-31T18:10:14.495Z,17.83
2024-01-31T18:12:28.180Z,20.58
2024-01-31T18:14:38.671Z,18.92
2024-01-31T18:16:47.459Z,17.95
2024-01-31T18:19:03.621Z,16.30
2024-01-31T18:21:12.576Z,22.90
2024-01-31T18:23:21.342Z,20.20
2024-01-31T18:25:32.805Z,23.83
2024-01-31T18:27:42.543Z,24.05
2024-01-31T18:29:53.382Z,22.15
2024-01-31T18:32:03.950Z,18.50
2024-01-31T18:34:12.866Z,19.98
2024-01-31T18:36:21.765Z,18.90
2024-01-31T18:38:30.324Z,16.77
2024-01-31T18:40:41.232Z,15.75
2024-01-31T18:42:49.870Z,16.83
2024-01-31T18:44:58.294Z,17.40
2024-01-31T18:47:06.836Z,16.13
2024-01-31T18:49:19.047Z,18.50
2024-01-31T18:51:27.857Z,16.70
2024-01-31T18:53:37.766Z,16.73
2024-01-31T18:55:49.294Z,17.95
2024-01-31T18:57:57.557Z,15.57
2024-01-31T19:00:06.495Z,16.15
2024-01-31T19:02:18.195Z,17.00
2024-01-31T19:04:26.692Z,18.40
2024-01-31T19:06:35.049Z,17.52
2024-01-31T19:08:43.552Z,17.40
2024-01-31T19:10:54.517Z,19.92
2024-01-31T19:13:03.216Z,16.60
2024-01-31T19:15:14.763Z,18.50
2024-01-31T19:17:27.890Z,16.75
2024-01-31T19:19:39.710Z,14.95
2024-01-31T19:21:48.335Z,16.98
2024-01-31T19:23:56.862Z,18.73
2024-01-31T19:26:08.172Z,21.85
2024-01-31T19:28:17.997Z,19.50
2024-01-31T19:30:27.668Z,17.23
2024-01-31T19:32:38.419Z,16.58
2024-01-31T19:34:48.431Z,34.17
2024-01-31T19:36:56.980Z,21.58
2024-01-31T19:39:02.766Z,24.23
2024-01-31T19:41:13.774Z,21.77
2024-01-31T19:43:22.497Z,19.77
2024-01-31T19:45:31.076Z,19.10
2024-01-31T19:47:39.531Z,18.20
2024-01-31T19:49:47.759Z,14.18
2024-01-31T19:51:57.440Z,12.80
2024-01-31T19:54:05.938Z,13.85
2024-01-31T19:56:17.284Z,15.57
2024-01-31T19:58:25.719Z,15.60
2024-01-31T20:00:34.206Z,14.85
2024-01-31T20:02:42.885Z,15.35
2024-01-31T20:04:51.449Z,13.40
2024-01-31T20:07:00.037Z,12.48
2024-01-31T20:09:10.417Z,11.18
2024-01-31T20:11:21.598Z,10.02
2024-01-31T20:13:27.185Z,11.35
2024-01-31T20:15:35.554Z,9.75
2024-01-31T20:17:44.465Z,12.20
2024-01-31T20:19:52.885Z,11.55
2024-01-31T20:22:01.850Z,11.30
2024-01-31T20:24:10.512Z,11.38
2024-01-31T20:26:22.045Z,11.57
2024-01-31T20:28:27.748Z,10.88
2024-01-31T20:30:36.621Z,9.65
2024-01-31T20:32:45.185Z,9.52
2024-01-31T20:34:53.981Z,9.98
2024-01-31T20:37:02.427Z,8.90
2024-01-31T20:39:18.264Z,8.68
2024-01-31T20:41:32.778Z,9.13
2024-01-31T20:43:41.254Z,9.52
2024-01-31T20:45:53.421Z,9.77
2024-01-31T20:48:01.745Z,6.90
2024-01-31T20:50:09.377Z,9.65
2024-01-31T20:52:19.182Z,13.10
2024-01-31T20:54:27.162Z,13.00
2024-01-31T20:56:38.464Z,12.35
2024-01-31T20:58:46.731Z,11.38
2024-01-31T21:00:58.899Z,10.00
2024-01-31T21:03:08.656Z,8.32
2024-01-31T21:05:17.584Z,7.50
2024-01-31T21:07:28.678Z,7.53
2024-01-31T21:09:34.520Z,8.90
2024-01-31T21:11:45.526Z,6.82
2024-01-31T21:13:53.853Z,6.88
2024-01-31T21:16:00.740Z,6.20
2024-01-31T21:18:14.607Z,6.93
2024-01-31T21:20:23.408Z,6.65
2024-01-31T21:22:31.678Z,6.88
2024-01-31T21:24:40.205Z,6.60
2024-01-31T21:26:51.272Z,6.63
2024-01-31T21:29:01.591Z,6.65
2024-01-31T21:31:11.052Z,6.75
2024-01-31T21:33:20.826Z,6.18
2024-01-31T21:35:26.538Z,7.13
2024-01-31T21:37:34.672Z,6.35
2024-01-31T21:39:45.882Z,7.55
2024-01-31T21:42:00.051Z,6.60
2024-01-31T21:44:09.730Z,5.65
2024-01-31T21:46:18.656Z,6.30
2024-01-31T21:48:30.176Z,6.25
2024-01-31T21:50:38.714Z,6.65
2024-01-31T21:52:46.843Z,6.60
2024-01-31T21:54:54.849Z,6.28
2024-01-31T21:57:09.015Z,6.90
2024-01-31T21:59:17.155Z,6.93
2024-01-31T22:01:25.613Z,5.85
2024-01-31T22:03:46.277Z,6.93
2024-01-31T22:06:02.094Z,6.53
2024-01-31T22:08:13.908Z,6.55
2024-01-31T22:10:24.736Z,5.80
2024-01-31T22:12:35.639Z,6.20
2024-01-31T22:14:49.093Z,6.03
2024-01-31T22:16:57.400Z,6.53
2024-01-31T22:19:08.519Z,6.90
2024-01-31T22:21:15.112Z,6.65
2024-01-31T22:23:24.554Z,6.53
2024-01-31T22:25:32.867Z,6.25
2024-01-31T22:27:43.718Z,5.78
2024-01-31T22:29:51.992Z,5.60
2024-01-31T22:32:06.215Z,6.65
2024-01-31T22:34:17.851Z,6.20
2024-01-31T22:36:26.330Z,5.95
2024-01-31T22:38:34.936Z,7.35
2024-01-31T22:40:43.874Z,7.13
2024-01-31T22:42:55.053Z,7.25
2024-01-31T22:45:03.395Z,6.35
2024-01-31T22:47:11.746Z,7.63
2024-01-31T22:49:20.128Z,7.47
2024-01-31T22:51:28.730Z,7.82
2024-01-31T22:53:36.996Z,7.93
2024-01-31T22:55:49.417Z,8.75
2024-01-31T22:58:00.424Z,7.07
2024-01-31T23:00:11.230Z,7.43
2024-01-31T23:02:22.383Z,7.57
2024-01-31T23:04:30.748Z,7.65
2024-01-31T23:06:39.234Z,6.80
2024-01-31T23:08:48.687Z,7.97
2024-01-31T23:10:57.047Z,7.35
2024-01-31T23:13:05.355Z,7.00
2024-01-31T23:15:14.727Z,7.88
2024-01-31T23:17:23.837Z,7.32
2024-01-31T23:19:32.531Z,5.72
2024-01-31T23:21:43.211Z,6.53
2024-01-31T23:23:52.589Z,6.20
2024-01-31T23:25:58.173Z,7.40
2024-01-31T23:28:09.559Z,7.05
2024-01-31T23:30:19.033Z,6.35
2024-01-31T23:32:27.110Z,8.18
2024-01-31T23:34:32.584Z,5.93
2024-01-31T23:36:40.865Z,7.30
2024-01-31T23:38:49.707Z,6.47
2024-01-31T23:40:57.844Z,6.88
2024-01-31T23:43:08.859Z,7.45
2024-01-31T23:45:17.187Z,7.88
2024-01-31T23:47:25.598Z,8.02
2024-01-31T23:49:34.239Z,6.95
2024-01-31T23:51:42.562Z,6.43
2024-01-31T23:53:51.192Z,7.60
2024-01-31T23:56:01.092Z,5.70
2024-01-31T23:58:12.090Z,6.88
